Time;durP1;ratioP1;P1;durP2;ratioP2;P2;SDS_P1;SDS_P2;PMS_P1;PMS_P2;Temp;Humidity;BMP_temperature;BMP_pressure;BME280_temperature;BME280_humidity;BME280_pressure;Samples;Min_cycle;Max_cycle;Signal;HPM_P1;HPM_P2
2022/09/18 00:01:23;;;;;;;0.10;0.10;;;;;;;;;;5054818;28;20028;-74
2022/09/18 00:03:49;;;;;;;0.10;0.10;;;;;;;;;;5036966;28;20086;-73
2022/09/18 00:06:16;;;;;;;0.10;0.10;;;;;;;;;;5062042;28;20033;-74
2022/09/18 00:08:42;;;;;;;0.10;0.10;;;;;;;;;;5060328;28;20044;-73
2022/09/18 00:11:09;;;;;;;0.10;0.10;;;;;;;;;;5043942;28;20056;-73
2022/09/18 00:13:35;;;;;;;0.10;0.10;;;;;;;;;;5068125;28;20041;-74
2022/09/18 00:16:01;;;;;;;0.10;0.10;;;;;;;;;;5054544;28;20028;-74
2022/09/18 00:18:27;;;;;;;7.78;3.45;;;;;;;;;;5054535;28;20033;-74
2022/09/18 00:20:52;;;;;;;0.10;0.10;;;;;;;;;;5054549;28;20040;-73
2022/09/18 00:23:18;;;;;;;0.10;0.10;;;;;;;;;;5054230;28;20032;-74
2022/09/18 00:25:43;;;;;;;0.10;0.10;;;;;;;;;;5054167;28;20083;-74
2022/09/18 00:28:08;;;;;;;0.10;0.10;;;;;;;;;;5036307;28;20069;-74
2022/09/18 00:30:34;;;;;;;0.10;0.10;;;;;;;;;;5036153;28;20102;-75
2022/09/18 00:32:59;;;;;;;0.10;0.10;;;;;;;;;;5053970;28;20039;-73
2022/09/18 00:35:25;;;;;;;0.10;0.10;;;;;;;;;;5054053;28;20112;-74
2022/09/18 00:37:50;;;;;;;0.10;0.10;;;;;;;;;;5053877;28;20349;-73
2022/09/18 00:40:16;;;;;;;0.10;0.10;;;;;;;;;;5053917;28;20111;-73
2022/09/18 00:42:42;;;;;;;0.10;0.10;;;;;;;;;;5053563;28;20025;-73
2022/09/18 00:45:09;;;;;;;0.10;0.10;;;;;;;;;;5053850;28;20053;-73
2022/09/18 00:47:42;;;;;;;0.17;0.17;;;;;;;;;;5053667;28;20530;-73
2022/09/18 00:50:15;;;;;;;0.10;0.10;;;;;;;;;;5019410;28;20029;-73
2022/09/18 00:52:51;;;;;;;0.10;0.10;;;;;;;;;;5035922;28;20079;-74
2022/09/18 00:55:21;;;;;;;0.10;0.10;;;;;;;;;;5035836;28;20077;-73
2022/09/18 00:57:46;;;;;;;;;;;;;;;;;;5036174;28;20029;-72
2022/09/18 01:00:15;;;;;;;0.10;0.10;;;;;;;;;;5053423;28;19934;-73
2022/09/18 01:02:41;;;;;;;0.13;0.13;;;;;;;;;;5035811;28;20111;-74
2022/09/18 01:05:08;;;;;;;0.10;0.10;;;;;;;;;;5018915;28;20464;-74
2022/09/18 01:08:06;;;;;;;0.10;0.10;;;;;;;;;;5018808;28;20491;-74
2022/09/18 01:10:50;;;;;;;0.10;0.10;;;;;;;;;;4998644;28;20048;-74
2022/09/18 01:13:21;;;;;;;0.10;0.10;;;;;;;;;;5035731;28;20477;-74
2022/09/18 01:15:47;;;;;;;0.10;0.10;;;;;;;;;;5053067;28;20021;-73
2022/09/18 01:18:16;;;;;;;0.20;0.20;;;;;;;;;;5019054;28;20484;-73
2022/09/18 01:21:08;;;;;;;0.10;0.10;;;;;;;;;;5053276;28;20032;-74
2022/09/18 01:23:33;;;;;;;0.10;0.10;;;;;;;;;;5048213;28;20373;-74
2022/09/18 01:26:18;;;;;;;0.10;0.10;;;;;;;;;;5052934;28;20029;-72
2022/09/18 01:28:46;;;;;;;0.10;0.10;;;;;;;;;;5053165;28;20456;-73
2022/09/18 01:31:24;;;;;;;0.10;0.10;;;;;;;;;;5053033;28;20025;-75
2022/09/18 01:34:08;;;;;;;0.10;0.10;;;;;;;;;;5019034;28;20032;-74
2022/09/18 01:36:36;;;;;;;0.10;0.10;;;;;;;;;;5035411;28;20029;-74
2022/09/18 01:39:02;;;;;;;0.10;0.10;;;;;;;;;;5035229;28;20072;-74
2022/09/18 01:41:28;;;;;;;0.32;0.32;;;;;;;;;;5035605;28;20049;-74
2022/09/18 01:44:04;;;;;;;0.10;0.10;;;;;;;;;;5035402;28;20476;-74
2022/09/18 01:46:30;;;;;;;0.10;0.10;;;;;;;;;;5052987;28;20408;-74
2022/09/18 01:49:02;;;;;;;0.10;0.10;;;;;;;;;;5035063;28;20033;-74
2022/09/18 01:51:33;;;;;;;0.10;0.10;;;;;;;;;;5035033;28;20431;-74
2022/09/18 01:54:03;;;;;;;0.10;0.10;;;;;;;;;;5035161;28;20048;-74
2022/09/18 01:56:36;;;;;;;0.10;0.10;;;;;;;;;;5018782;28;20071;-74
2022/09/18 01:59:04;;;;;;;0.10;0.10;;;;;;;;;;5035071;28;20434;-73
2022/09/18 02:01:39;;;;;;;0.10;0.10;;;;;;;;;;5035081;28;20025;-73
2022/09/18 02:04:07;;;;;;;0.10;0.10;;;;;;;;;;5036005;28;20036;-73
2022/09/18 02:06:37;;;;;;;0.10;0.10;;;;;;;;;;5039134;28;20044;-73
2022/09/18 02:09:02;;;;;;;0.10;0.10;;;;;;;;;;5038810;28;20053;-73
2022/09/18 02:11:29;;;;;;;0.10;0.10;;;;;;;;;;5039246;28;20052;-73
2022/09/18 02:13:59;;;;;;;0.05;0.05;;;;;;;;;;5038740;28;20107;-74
2022/09/18 02:16:45;;;;;;;0.10;0.10;;;;;;;;;;5038720;28;20029;-74
2022/09/18 02:19:17;;;;;;;0.10;0.10;;;;;;;;;;5039341;28;20118;-73
2022/09/18 02:21:44;;;;;;;0.10;0.10;;;;;;;;;;5038830;28;20039;-73
2022/09/18 02:24:10;;;;;;;0.10;0.10;;;;;;;;;;5038642;28;20465;-72
2022/09/18 02:26:38;;;;;;;0.00;0.00;;;;;;;;;;5038505;28;20025;-73
2022/09/18 02:29:05;;;;;;;0.10;0.10;;;;;;;;;;5056240;28;20032;-74
2022/09/18 02:31:31;;;;;;;0.10;0.10;;;;;;;;;;5022593;28;20147;-74
2022/09/18 02:33:57;;;;;;;0.10;0.10;;;;;;;;;;5038624;28;20102;-73
2022/09/18 02:36:57;;;;;;;0.10;0.10;;;;;;;;;;5056401;28;20025;-74
2022/09/18 02:39:29;;;;;;;0.10;0.10;;;;;;;;;;4956030;29;20027;-74
2022/09/18 02:42:20;;;;;;;0.10;0.10;;;;;;;;;;5022143;28;20043;-74
2022/09/18 02:44:55;;;;;;;0.10;0.10;;;;;;;;;;5038411;28;20033;-74
2022/09/18 02:47:26;;;;;;;0.10;0.10;;;;;;;;;;5056161;28;20026;-74
2022/09/18 02:50:03;;;;;;;0.10;0.10;;;;;;;;;;5055952;28;20155;-75
2022/09/18 02:52:50;;;;;;;0.10;0.10;;;;;;;;;;5038826;28;20095;-74
2022/09/18 02:55:19;;;;;;;0.10;0.10;;;;;;;;;;5055345;28;20045;-74
2022/09/18 02:58:04;;;;;;;0.10;0.10;;;;;;;;;;5038040;28;20017;-74
2022/09/18 03:00:31;;;;;;;0.10;0.10;;;;;;;;;;5038177;28;20120;-74
2022/09/18 03:02:59;;;;;;;0.10;0.10;;;;;;;;;;5018195;28;20123;-74
2022/09/18 03:05:32;;;;;;;0.10;0.10;;;;;;;;;;5034465;28;20037;-74
2022/09/18 03:07:59;;;;;;;0.10;0.10;;;;;;;;;;5034185;28;20048;-76
2022/09/18 03:10:27;;;;;;;0.10;0.10;;;;;;;;;;5034256;28;20134;-73
2022/09/18 03:12:53;;;;;;;0.10;0.10;;;;;;;;;;5033631;28;20068;-73
2022/09/18 03:15:19;;;;;;;0.10;0.10;;;;;;;;;;5016518;28;20067;-73
2022/09/18 03:17:44;;;;;;;0.10;0.10;;;;;;;;;;5051460;28;20476;-73
2022/09/18 03:20:10;;;;;;;0.00;0.00;;;;;;;;;;5052042;28;20150;-73
2022/09/18 03:22:36;;;;;;;0.10;0.10;;;;;;;;;;5052205;28;20029;-73
2022/09/18 03:25:01;;;;;;;0.10;0.10;;;;;;;;;;5033836;28;20079;-73
2022/09/18 03:27:27;;;;;;;0.00;0.00;;;;;;;;;;5033493;28;20025;-76
2022/09/18 03:29:52;;;;;;;0.10;0.10;;;;;;;;;;5034140;28;20040;-74
2022/09/18 03:32:21;;;;;;;0.10;0.10;;;;;;;;;;5017804;28;20091;-75
2022/09/18 03:34:49;;;;;;;0.10;0.10;;;;;;;;;;5033955;28;20093;-74
2022/09/18 03:37:15;;;;;;;0.10;0.10;;;;;;;;;;5033734;28;20116;-74
2022/09/18 03:39:42;;;;;;;0.10;0.10;;;;;;;;;;5050989;28;20361;-74
2022/09/18 03:42:11;;;;;;;0.00;0.00;;;;;;;;;;5033184;28;20541;-74
2022/09/18 03:44:37;;;;;;;0.10;0.10;;;;;;;;;;5017049;28;20024;-74
2022/09/18 03:47:10;;;;;;;0.10;0.10;;;;;;;;;;5033648;28;20124;-73
2022/09/18 03:49:36;;;;;;;0.00;0.00;;;;;;;;;;5050849;28;20139;-73
2022/09/18 03:52:02;;;;;;;0.10;0.10;;;;;;;;;;5033303;28;20044;-74
2022/09/18 03:54:32;;;;;;;0.10;0.10;;;;;;;;;;5017344;28;20033;-75
2022/09/18 03:57:36;;;;;;;0.10;0.10;;;;;;;;;;5050467;28;20049;-73
2022/09/18 04:00:15;;;;;;;0.10;0.10;;;;;;;;;;5033392;28;20029;-74
2022/09/18 04:02:41;;;;;;;0.05;0.05;;;;;;;;;;5051134;28;20132;-74
2022/09/18 04:05:30;;;;;;;0.10;0.10;;;;;;;;;;5042800;28;20037;-73
2022/09/18 04:08:25;;;;;;;0.10;0.10;;;;;;;;;;5038040;28;20068;-73
2022/09/18 04:11:05;;;;;;;0.10;0.10;;;;;;;;;;5015105;28;20401;-73
2022/09/18 04:13:32;;;;;;;0.10;0.10;;;;;;;;;;5030465;28;20036;-75
2022/09/18 04:16:03;;;;;;;0.10;0.10;;;;;;;;;;5029664;28;20397;-75
2022/09/18 04:18:29;;;;;;;0.10;0.10;;;;;;;;;;5031236;28;20044;-74
2022/09/18 04:20:56;;;;;;;0.10;0.10;;;;;;;;;;5029645;28;20079;-73
2022/09/18 04:23:22;;;;;;;0.00;0.00;;;;;;;;;;5030751;28;20025;-75
2022/09/18 04:25:47;;;;;;;0.10;0.10;;;;;;;;;;5030217;28;20053;-73
2022/09/18 04:28:13;;;;;;;0.13;0.13;;;;;;;;;;5028598;28;20034;-73
2022/09/18 04:30:42;;;;;;;0.10;0.10;;;;;;;;;;5028475;28;20901;-73
2022/09/18 04:33:08;;;;;;;0.10;0.10;;;;;;;;;;5012072;28;20124;-74
2022/09/18 04:35:34;;;;;;;0.10;0.10;;;;;;;;;;5029999;28;20500;-73
2022/09/18 04:37:59;;;;;;;0.10;0.10;;;;;;;;;;5030226;28;20033;-73
2022/09/18 04:40:25;;;;;;;0.10;0.10;;;;;;;;;;5030138;28;20159;-73
2022/09/18 04:42:50;;;;;;;0.10;0.10;;;;;;;;;;5029920;28;20403;-73
2022/09/18 04:45:16;;;;;;;0.10;0.10;;;;;;;;;;5030235;28;20480;-74
2022/09/18 04:47:43;;;;;;;0.10;0.10;;;;;;;;;;5028699;28;20543;-75
2022/09/18 04:50:09;;;;;;;0.05;0.05;;;;;;;;;;5029976;28;20121;-76
2022/09/18 04:52:55;;;;;;;0.10;0.10;;;;;;;;;;5028749;28;20122;-74
2022/09/18 04:55:21;;;;;;;0.40;0.40;;;;;;;;;;5029913;28;20065;-75
2022/09/18 04:57:46;;;;;;;0.10;0.10;;;;;;;;;;5029220;28;20353;-76
2022/09/18 05:00:12;;;;;;;0.10;0.10;;;;;;;;;;5010785;28;20036;-74
2022/09/18 05:02:39;;;;;;;0.10;0.10;;;;;;;;;;5024019;28;20030;-74
2022/09/18 05:05:06;;;;;;;0.00;0.00;;;;;;;;;;5008820;28;20429;-76
2022/09/18 05:07:33;;;;;;;0.08;0.08;;;;;;;;;;5032572;28;20045;-74
2022/09/18 05:09:59;;;;;;;0.00;0.00;;;;;;;;;;5005444;28;20045;-74
2022/09/18 05:12:28;;;;;;;0.10;0.10;;;;;;;;;;5009909;28;20129;-74
2022/09/18 05:14:54;;;;;;;0.00;0.00;;;;;;;;;;5011014;28;20117;-75
2022/09/18 05:17:20;;;;;;;0.10;0.10;;;;;;;;;;5016574;28;20056;-75
2022/09/18 05:20:00;;;;;;;0.10;0.10;;;;;;;;;;5035541;28;20465;-76
2022/09/18 05:22:33;;;;;;;0.00;0.00;;;;;;;;;;5035842;28;20495;-74
2022/09/18 05:24:59;;;;;;;0.05;0.05;;;;;;;;;;5028347;28;20028;-74
2022/09/18 05:27:24;;;;;;;0.10;0.10;;;;;;;;;;5029026;28;20029;-73
2022/09/18 05:29:50;;;;;;;0.10;0.10;;;;;;;;;;5028607;28;20083;-75
2022/09/18 05:32:20;;;;;;;0.10;0.10;;;;;;;;;;5027151;28;20099;-75
2022/09/18 05:34:48;;;;;;;0.10;0.10;;;;;;;;;;5027352;28;20029;-74
2022/09/18 05:37:13;;;;;;;0.10;0.10;;;;;;;;;;5028007;28;20033;-74
2022/09/18 05:39:41;;;;;;;0.10;0.10;;;;;;;;;;5026630;28;20080;-76
2022/09/18 05:42:06;;;;;;;0.10;0.10;;;;;;;;;;5029797;28;20029;-76
2022/09/18 05:44:32;;;;;;;0.10;0.10;;;;;;;;;;5023408;28;20476;-75
2022/09/18 05:46:58;;;;;;;0.10;0.10;;;;;;;;;;5018540;28;20036;-73
2022/09/18 05:49:25;;;;;;;0.10;0.10;;;;;;;;;;5008433;28;20040;-74
2022/09/18 05:51:50;;;;;;;0.10;0.10;;;;;;;;;;5013770;28;20026;-76
2022/09/18 05:54:19;;;;;;;0.10;0.10;;;;;;;;;;5002350;28;20040;-74
2022/09/18 05:56:49;;;;;;;0.10;0.10;;;;;;;;;;5011989;28;20033;-73
2022/09/18 05:59:14;;;;;;;0.10;0.10;;;;;;;;;;5019031;28;20080;-74
2022/09/18 06:01:43;;;;;;;0.10;0.10;;;;;;;;;;5013653;28;20482;-73
2022/09/18 06:04:20;;;;;;;0.10;0.10;;;;;;;;;;5010824;28;20056;-74
2022/09/18 06:07:02;;;;;;;0.10;0.10;;;;;;;;;;5006796;28;20065;-75
2022/09/18 06:09:28;;;;;;;0.10;0.10;;;;;;;;;;5015776;28;20063;-73
2022/09/18 06:11:53;;;;;;;0.10;0.10;;;;;;;;;;5024492;28;20542;-74
2022/09/18 06:14:20;;;;;;;1.48;1.45;;;;;;;;;;5012342;28;20100;-74
2022/09/18 06:16:46;;;;;;;0.10;0.10;;;;;;;;;;5008928;28;20154;-74
2022/09/18 06:19:11;;;;;;;0.10;0.10;;;;;;;;;;5009984;28;20132;-73
2022/09/18 06:21:39;;;;;;;0.10;0.10;;;;;;;;;;5021964;28;20060;-74
2022/09/18 06:24:07;;;;;;;0.10;0.10;;;;;;;;;;5013572;28;20373;-73
2022/09/18 06:27:06;;;;;;;0.20;0.20;;;;;;;;;;4999417;28;20032;-73
2022/09/18 06:29:33;;;;;;;0.10;0.10;;;;;;;;;;5021800;28;20592;-74
2022/09/18 06:32:08;;;;;;;0.15;0.15;;;;;;;;;;5008125;28;20042;-74
2022/09/18 06:34:35;;;;;;;0.10;0.10;;;;;;;;;;5000275;28;20093;-73
2022/09/18 06:37:03;;;;;;;0.17;0.17;;;;;;;;;;5010471;28;20033;-73
2022/09/18 06:39:52;;;;;;;2.50;1.17;;;;;;;;;;5017245;28;20038;-71
2022/09/18 06:42:31;;;;;;;0.20;0.20;;;;;;;;;;5020966;28;20040;-76
2022/09/18 06:45:26;;;;;;;0.20;0.20;;;;;;;;;;5016934;28;20041;-74
2022/09/18 06:47:54;;;;;;;0.10;0.10;;;;;;;;;;5027470;28;20030;-74
2022/09/18 06:50:21;;;;;;;0.20;0.20;;;;;;;;;;5018448;28;20113;-73
2022/09/18 06:52:48;;;;;;;0.13;0.13;;;;;;;;;;5013099;28;20017;-70
2022/09/18 06:55:15;;;;;;;0.10;0.10;;;;;;;;;;5012139;28;20048;-72
2022/09/18 06:57:41;;;;;;;0.20;0.20;;;;;;;;;;5013691;28;20583;-72
2022/09/18 07:00:12;;;;;;;0.10;0.10;;;;;;;;;;5013713;28;20417;-71
2022/09/18 07:02:38;;;;;;;0.43;0.43;;;;;;;;;;5020813;28;20030;-70
2022/09/18 07:05:26;;;;;;;0.10;0.10;;;;;;;;;;5012617;28;20533;-74
2022/09/18 07:07:52;;;;;;;0.15;0.15;;;;;;;;;;5021347;28;20065;-72
2022/09/18 07:10:17;;;;;;;0.22;0.22;;;;;;;;;;5030329;28;20088;-70
2022/09/18 07:12:47;;;;;;;0.17;0.17;;;;;;;;;;5018745;28;20092;-71
2022/09/18 07:15:17;;;;;;;0.70;0.70;;;;;;;;;;5014078;28;20482;-71
2022/09/18 07:17:43;;;;;;;0.10;0.10;;;;;;;;;;5018438;28;20034;-72
2022/09/18 07:20:11;;;;;;;1.52;1.50;;;;;;;;;;5010758;28;20066;-71
2022/09/18 07:22:41;;;;;;;0.10;0.10;;;;;;;;;;5011187;28;20026;-72
2022/09/18 07:25:07;;;;;;;0.20;0.20;;;;;;;;;;5027149;28;20048;-69
2022/09/18 07:27:35;;;;;;;0.20;0.20;;;;;;;;;;5010424;28;20080;-69
2022/09/18 07:30:03;;;;;;;;;;;;;;;;;;5010655;28;20050;-70
2022/09/18 07:32:28;;;;;;;0.20;0.20;;;;;;;;;;5011682;28;20361;-69
2022/09/18 07:34:56;;;;;;;0.20;0.20;;;;;;;;;;5026749;28;20084;-70
2022/09/18 07:37:29;;;;;;;0.20;0.20;;;;;;;;;;5020387;28;20025;-70
2022/09/18 07:40:15;;;;;;;0.20;0.20;;;;;;;;;;5027002;28;20443;-72
2022/09/18 07:43:06;;;;;;;3.70;0.57;;;;;;;;;;5028379;28;20508;-72
2022/09/18 07:45:34;;;;;;;0.20;0.20;;;;;;;;;;5028367;28;20481;-72
2022/09/18 07:48:01;;;;;;;0.20;0.20;;;;;;;;;;5007666;28;20081;-75
2022/09/18 07:50:28;;;;;;;2.63;2.53;;;;;;;;;;5025281;28;20108;-74
2022/09/18 07:52:56;;;;;;;0.20;0.20;;;;;;;;;;5014069;28;20021;-78
2022/09/18 07:55:26;;;;;;;0.20;0.20;;;;;;;;;;5001303;28;20523;-71
2022/09/18 07:57:54;;;;;;;0.10;0.10;;;;;;;;;;5030162;28;20030;-72
2022/09/18 08:00:30;;;;;;;0.10;0.10;;;;;;;;;;5023099;28;20025;-73
2022/09/18 08:03:05;;;;;;;0.30;0.30;;;;;;;;;;5034430;28;20034;-75
2022/09/18 08:05:51;;;;;;;0.30;0.30;;;;;;;;;;5022413;28;20045;-73
2022/09/18 08:08:17;;;;;;;0.20;0.20;;;;;;;;;;5029382;28;20061;-73
2022/09/18 08:11:11;;;;;;;0.20;0.20;;;;;;;;;;5042101;28;20048;-71
2022/09/18 08:14:04;;;;;;;0.63;0.43;;;;;;;;;;5050532;28;20041;-71
2022/09/18 08:16:49;;;;;;;0.50;0.50;;;;;;;;;;5050851;28;20045;-71
2022/09/18 08:19:47;;;;;;;0.20;0.20;;;;;;;;;;5005969;28;20125;-72
2022/09/18 08:22:22;;;;;;;0.20;0.20;;;;;;;;;;5031726;28;20040;-73
2022/09/18 08:24:51;;;;;;;;;;;;;;;;;;5030981;28;20069;-73
2022/09/18 08:27:17;;;;;;;0.22;0.22;;;;;;;;;;5029489;28;19947;-74
2022/09/18 08:29:44;;;;;;;0.35;0.22;;;;;;;;;;5021966;28;20025;-72
2022/09/18 08:32:10;;;;;;;0.30;0.30;;;;;;;;;;5029158;28;20051;-72
2022/09/18 08:34:36;;;;;;;0.40;0.40;;;;;;;;;;5033566;28;20465;-71
2022/09/18 08:37:02;;;;;;;0.20;0.20;;;;;;;;;;5040485;28;20033;-72
2022/09/18 08:39:46;;;;;;;0.20;0.20;;;;;;;;;;5043581;28;20048;-74
2022/09/18 08:42:32;;;;;;;0.20;0.20;;;;;;;;;;5028311;28;20029;-71
2022/09/18 08:45:16;;;;;;;0.20;0.20;;;;;;;;;;5024381;28;20033;-71
2022/09/18 08:47:49;;;;;;;0.20;0.20;;;;;;;;;;5010218;28;20072;-72
2022/09/18 08:50:24;;;;;;;0.30;0.30;;;;;;;;;;5025643;28;20064;-73
2022/09/18 08:53:24;;;;;;;0.20;0.20;;;;;;;;;;5028158;28;20048;-75
2022/09/18 08:56:17;;;;;;;0.20;0.20;;;;;;;;;;5006540;28;20044;-73
2022/09/18 08:59:23;;;;;;;0.75;0.52;;;;;;;;;;5001932;28;20549;-74
2022/09/18 09:01:59;;;;;;;1.23;0.50;;;;;;;;;;5029870;28;20021;-74
2022/09/18 09:04:28;;;;;;;0.20;0.20;;;;;;;;;;5010137;28;20033;-74
2022/09/18 09:07:05;;;;;;;0.20;0.20;;;;;;;;;;5009656;28;20529;-69
2022/09/18 09:09:51;;;;;;;0.10;0.10;;;;;;;;;;5015834;28;20408;-69
2022/09/18 09:12:19;;;;;;;0.20;0.20;;;;;;;;;;5020863;28;20033;-71
2022/09/18 09:14:59;;;;;;;0.30;0.30;;;;;;;;;;5043052;28;20043;-70
2022/09/18 09:17:40;;;;;;;0.35;0.35;;;;;;;;;;5029054;28;20086;-70
2022/09/18 09:20:21;;;;;;;0.20;0.20;;;;;;;;;;5034572;28;20035;-69
2022/09/18 09:22:57;;;;;;;0.20;0.20;;;;;;;;;;5008534;28;20033;-70
2022/09/18 09:25:38;;;;;;;0.73;0.47;;;;;;;;;;5028743;28;20025;-70
2022/09/18 09:28:23;;;;;;;0.20;0.20;;;;;;;;;;5028183;28;20412;-71
2022/09/18 09:31:08;;;;;;;0.20;0.20;;;;;;;;;;5039559;28;20805;-70
2022/09/18 09:34:03;;;;;;;0.20;0.20;;;;;;;;;;5045800;28;20067;-70
2022/09/18 09:36:51;;;;;;;0.20;0.20;;;;;;;;;;5034498;28;20041;-70
2022/09/18 09:39:19;;;;;;;0.20;0.20;;;;;;;;;;5047332;28;20040;-70
2022/09/18 09:41:47;;;;;;;0.20;0.20;;;;;;;;;;5047385;28;20028;-70
2022/09/18 09:44:23;;;;;;;0.10;0.10;;;;;;;;;;5031228;28;20032;-76
2022/09/18 09:46:53;;;;;;;0.20;0.20;;;;;;;;;;5031029;28;20508;-76
2022/09/18 09:49:23;;;;;;;0.20;0.20;;;;;;;;;;5029615;28;20022;-73
2022/09/18 09:51:49;;;;;;;1.75;0.57;;;;;;;;;;5035537;28;20021;-75
2022/09/18 09:54:14;;;;;;;0.40;0.35;;;;;;;;;;5026292;28;20052;-74
2022/09/18 09:56:43;;;;;;;0.10;0.10;;;;;;;;;;5041106;28;20070;-76
2022/09/18 09:59:12;;;;;;;0.10;0.10;;;;;;;;;;5048027;28;20400;-76
2022/09/18 10:02:05;;;;;;;0.20;0.20;;;;;;;;;;5029385;28;20032;-75
2022/09/18 10:04:34;;;;;;;0.20;0.20;;;;;;;;;;5030021;28;20036;-76
2022/09/18 10:07:02;;;;;;;0.25;0.25;;;;;;;;;;5038236;28;20021;-75
2022/09/18 10:09:28;;;;;;;;;;;;;;;;;;5041007;28;20049;-76
2022/09/18 10:12:01;;;;;;;0.20;0.20;;;;;;;;;;5051980;28;19912;-77
2022/09/18 10:14:32;;;;;;;0.20;0.20;;;;;;;;;;5031483;28;20132;-75
2022/09/18 10:16:58;;;;;;;0.20;0.20;;;;;;;;;;5029886;28;20035;-76
2022/09/18 10:19:28;;;;;;;0.30;0.30;;;;;;;;;;5029003;28;20025;-76
2022/09/18 10:21:54;;;;;;;0.20;0.20;;;;;;;;;;5029436;28;20120;-75
2022/09/18 10:24:26;;;;;;;0.25;0.25;;;;;;;;;;5030492;28;20539;-75
2022/09/18 10:27:21;;;;;;;0.22;0.22;;;;;;;;;;5033721;28;20033;-75
2022/09/18 10:29:46;;;;;;;0.20;0.20;;;;;;;;;;5027932;28;20476;-75
2022/09/18 10:32:40;;;;;;;0.20;0.20;;;;;;;;;;5033203;28;20045;-75
2022/09/18 10:35:27;;;;;;;0.30;0.30;;;;;;;;;;5018265;28;20059;-75
2022/09/18 10:37:52;;;;;;;0.30;0.30;;;;;;;;;;5051445;28;20029;-76
2022/09/18 10:40:37;;;;;;;0.20;0.20;;;;;;;;;;5050479;28;20025;-75
2022/09/18 10:43:03;;;;;;;0.20;0.20;;;;;;;;;;5032648;28;20028;-75
2022/09/18 10:45:32;;;;;;;0.20;0.20;;;;;;;;;;5033345;28;20025;-75
2022/09/18 10:48:16;;;;;;;0.22;0.22;;;;;;;;;;5035056;28;20028;-76
2022/09/18 10:50:51;;;;;;;0.30;0.30;;;;;;;;;;5018114;28;20040;-75
2022/09/18 10:53:41;;;;;;;0.30;0.30;;;;;;;;;;5018383;28;20035;-75
2022/09/18 10:56:26;;;;;;;0.38;0.38;;;;;;;;;;5036954;28;20029;-76
2022/09/18 10:58:54;;;;;;;0.20;0.20;;;;;;;;;;5034703;28;20027;-75
2022/09/18 11:01:22;;;;;;;0.30;0.30;;;;;;;;;;5034088;28;20120;-75
2022/09/18 11:03:57;;;;;;;1.35;0.52;;;;;;;;;;5034217;28;20041;-75
2022/09/18 11:06:27;;;;;;;0.40;0.40;;;;;;;;;;5034107;28;20025;-73
2022/09/18 11:08:57;;;;;;;0.35;0.35;;;;;;;;;;5033745;28;20029;-74
2022/09/18 11:11:31;;;;;;;0.35;0.35;;;;;;;;;;5034152;28;20055;-74
2022/09/18 11:14:15;;;;;;;0.30;0.30;;;;;;;;;;5034003;28;20091;-74
2022/09/18 11:16:52;;;;;;;;;;;;;;;;;;5019500;28;20036;-74
2022/09/18 11:19:23;;;;;;;0.20;0.20;;;;;;;;;;5034143;28;19909;-74
2022/09/18 11:21:50;;;;;;;0.20;0.20;;;;;;;;;;5033892;28;20413;-73
2022/09/18 11:24:26;;;;;;;0.20;0.20;;;;;;;;;;5034134;28;20499;-74
2022/09/18 11:26:59;;;;;;;0.20;0.20;;;;;;;;;;5034000;28;20064;-74
2022/09/18 11:29:33;;;;;;;0.25;0.25;;;;;;;;;;5033580;28;20510;-73
2022/09/18 11:32:09;;;;;;;0.30;0.30;;;;;;;;;;5034015;28;20028;-74
2022/09/18 11:34:37;;;;;;;0.35;0.35;;;;;;;;;;5033435;28;20037;-74
2022/09/18 11:37:10;;;;;;;0.30;0.30;;;;;;;;;;5032698;28;20031;-74
2022/09/18 11:39:39;;;;;;;0.20;0.20;;;;;;;;;;5033192;28;20272;-74
2022/09/18 11:42:07;;;;;;;0.30;0.30;;;;;;;;;;5051637;28;20028;-74
2022/09/18 11:44:33;;;;;;;0.38;0.38;;;;;;;;;;5051048;28;20060;-74
2022/09/18 11:47:06;;;;;;;0.20;0.20;;;;;;;;;;5051219;28;20108;-74
2022/09/18 11:49:34;;;;;;;0.20;0.20;;;;;;;;;;5032965;28;20040;-74
2022/09/18 11:52:02;;;;;;;0.20;0.20;;;;;;;;;;5051138;28;20108;-74
2022/09/18 11:54:37;;;;;;;0.28;0.28;;;;;;;;;;5051293;28;20124;-74
2022/09/18 11:57:09;;;;;;;0.20;0.20;;;;;;;;;;5033026;28;20120;-75
2022/09/18 11:59:45;;;;;;;0.30;0.30;;;;;;;;;;5032789;28;20121;-74
2022/09/18 12:02:30;;;;;;;0.30;0.30;;;;;;;;;;5033225;28;20037;-75
2022/09/18 12:05:14;;;;;;;0.30;0.30;;;;;;;;;;5051031;28;20115;-74
2022/09/18 12:07:48;;;;;;;0.30;0.30;;;;;;;;;;5032829;28;20029;-73
2022/09/18 12:10:20;;;;;;;0.30;0.30;;;;;;;;;;5029449;28;20060;-74
2022/09/18 12:12:46;;;;;;;0.43;0.43;;;;;;;;;;5030932;28;20037;-74
2022/09/18 12:15:14;;;;;;;0.40;0.40;;;;;;;;;;5030916;28;20045;-74
2022/09/18 12:17:45;;;;;;;0.30;0.30;;;;;;;;;;5030820;28;20033;-73
2022/09/18 12:20:16;;;;;;;0.30;0.30;;;;;;;;;;5029311;28;20037;-76
2022/09/18 12:22:51;;;;;;;0.20;0.20;;;;;;;;;;5029548;28;20034;-76
2022/09/18 12:25:17;;;;;;;0.30;0.30;;;;;;;;;;5029736;28;20033;-76
2022/09/18 12:28:34;;;;;;;0.20;0.20;;;;;;;;;;5027285;28;20472;-75
2022/09/18 12:31:03;;;;;;;0.20;0.20;;;;;;;;;;5030385;28;20036;-75
2022/09/18 12:33:42;;;;;;;0.55;0.32;;;;;;;;;;5030240;28;20025;-76
2022/09/18 12:36:25;;;;;;;1.20;0.80;;;;;;;;;;5030909;28;20034;-76
2022/09/18 12:39:00;;;;;;;0.20;0.20;;;;;;;;;;5030201;28;20496;-75
2022/09/18 12:41:32;;;;;;;0.63;0.30;;;;;;;;;;5028988;28;20346;-75
2022/09/18 12:44:03;;;;;;;0.20;0.20;;;;;;;;;;5030383;28;20120;-75
2022/09/18 12:46:35;;;;;;;0.98;0.60;;;;;;;;;;5030432;28;20026;-75
2022/09/18 12:49:06;;;;;;;1.15;0.38;;;;;;;;;;5030730;28;20026;-75
2022/09/18 12:51:46;;;;;;;1.40;0.43;;;;;;;;;;5030262;28;20398;-75
2022/09/18 12:54:14;;;;;;;0.35;0.25;;;;;;;;;;5029758;28;20041;-75
2022/09/18 12:56:45;;;;;;;0.38;0.30;;;;;;;;;;5028935;28;20080;-76
2022/09/18 12:59:30;;;;;;;0.20;0.20;;;;;;;;;;5029027;28;20393;-75
2022/09/18 13:02:00;;;;;;;0.75;0.40;;;;;;;;;;5030250;28;20065;-75
2022/09/18 13:04:28;;;;;;;0.35;0.30;;;;;;;;;;5028998;28;20060;-76
2022/09/18 13:07:12;;;;;;;0.27;0.27;;;;;;;;;;5029858;28;20032;-75
2022/09/18 13:10:01;;;;;;;0.20;0.20;;;;;;;;;;5037357;28;20164;-75
2022/09/18 13:13:05;;;;;;;0.30;0.30;;;;;;;;;;5036369;28;20484;-75
2022/09/18 13:15:42;;;;;;;0.25;0.25;;;;;;;;;;4949411;29;20043;-75
2022/09/18 13:18:23;;;;;;;0.20;0.20;;;;;;;;;;4949404;29;20042;-76
2022/09/18 13:20:49;;;;;;;0.20;0.20;;;;;;;;;;5013890;28;20045;-75
2022/09/18 13:23:32;;;;;;;0.20;0.20;;;;;;;;;;5031392;28;20025;-75
2022/09/18 13:25:58;;;;;;;0.32;0.25;;;;;;;;;;5031920;28;20079;-76
2022/09/18 13:28:24;;;;;;;0.35;0.35;;;;;;;;;;5032546;28;20033;-75
2022/09/18 13:31:10;;;;;;;0.20;0.20;;;;;;;;;;5049658;28;20037;-75
2022/09/18 13:33:35;;;;;;;0.40;0.30;;;;;;;;;;5031273;28;20033;-76
2022/09/18 13:36:01;;;;;;;0.20;0.20;;;;;;;;;;5049044;28;20032;-75
2022/09/18 13:38:27;;;;;;;0.38;0.38;;;;;;;;;;5049557;28;20024;-75
2022/09/18 13:41:03;;;;;;;0.20;0.20;;;;;;;;;;5049480;28;20376;-75
2022/09/18 13:43:35;;;;;;;0.30;0.30;;;;;;;;;;5049188;28;20056;-76
2022/09/18 13:46:02;;;;;;;0.30;0.30;;;;;;;;;;5049336;28;20037;-76
2022/09/18 13:48:28;;;;;;;0.20;0.20;;;;;;;;;;5049149;28;20028;-75
2022/09/18 13:51:04;;;;;;;1.05;0.30;;;;;;;;;;5031803;28;20037;-76
2022/09/18 13:53:31;;;;;;;0.30;0.30;;;;;;;;;;5048989;28;20083;-74
2022/09/18 13:55:56;;;;;;;0.43;0.28;;;;;;;;;;5049261;28;20029;-76
2022/09/18 13:58:49;;;;;;;0.70;0.30;;;;;;;;;;5049396;28;20070;-75
2022/09/18 14:01:32;;;;;;;0.43;0.40;;;;;;;;;;5030037;28;20094;-75
2022/09/18 14:03:58;;;;;;;5.40;0.65;;;;;;;;;;5052918;28;20025;-75
2022/09/18 14:06:35;;;;;;;0.52;0.52;;;;;;;;;;5052986;28;20021;-76
2022/09/18 14:09:02;;;;;;;1.38;0.63;;;;;;;;;;5052702;28;20157;-76
2022/09/18 14:11:27;;;;;;;0.30;0.30;;;;;;;;;;5052966;28;20021;-76
2022/09/18 14:13:54;;;;;;;0.22;0.22;;;;;;;;;;5035022;28;20459;-75
2022/09/18 14:16:22;;;;;;;1.75;1.50;;;;;;;;;;5035237;28;20079;-76
2022/09/18 14:18:48;;;;;;;0.32;0.32;;;;;;;;;;5035152;28;20044;-75
2022/09/18 14:21:16;;;;;;;0.30;0.30;;;;;;;;;;5052884;28;20029;-75
2022/09/18 14:23:45;;;;;;;0.20;0.20;;;;;;;;;;5052788;28;20040;-75
2022/09/18 14:28:54;;;;;;;0.20;0.20;;;;;;;;;;5052839;28;20029;-75
2022/09/18 14:31:27;;;;;;;0.30;0.30;;;;;;;;;;5052710;28;20075;-75
2022/09/18 14:33:54;;;;;;;0.30;0.30;;;;;;;;;;5034783;28;20116;-75
2022/09/18 14:36:20;;;;;;;0.20;0.20;;;;;;;;;;5052771;28;20116;-74
2022/09/18 14:38:45;;;;;;;0.25;0.25;;;;;;;;;;5052721;28;20606;-75
2022/09/18 14:41:20;;;;;;;0.30;0.30;;;;;;;;;;5053724;28;20054;-75
2022/09/18 14:43:59;;;;;;;1.08;0.40;;;;;;;;;;5052712;28;20029;-75
2022/09/18 14:46:25;;;;;;;0.20;0.20;;;;;;;;;;5052358;28;20044;-75
2022/09/18 14:48:51;;;;;;;0.30;0.30;;;;;;;;;;5052336;28;20021;-75
2022/09/18 14:51:20;;;;;;;0.63;0.50;;;;;;;;;;5034889;28;20037;-75
2022/09/18 14:53:48;;;;;;;0.40;0.35;;;;;;;;;;5052387;28;20063;-75
2022/09/18 14:56:19;;;;;;;0.65;0.40;;;;;;;;;;5052111;28;20545;-74
2022/09/18 14:58:46;;;;;;;0.28;0.28;;;;;;;;;;5052580;28;20115;-74
2022/09/18 15:01:32;;;;;;;0.75;0.32;;;;;;;;;;5034267;28;20526;-74
2022/09/18 15:03:59;;;;;;;0.20;0.20;;;;;;;;;;5033455;28;20040;-74
2022/09/18 15:06:34;;;;;;;0.30;0.30;;;;;;;;;;5053622;28;20028;-75
2022/09/18 15:09:00;;;;;;;0.28;0.28;;;;;;;;;;5065308;28;20101;-75
2022/09/18 15:11:27;;;;;;;0.65;0.40;;;;;;;;;;5066314;28;20044;-75
2022/09/18 15:13:53;;;;;;;2.92;0.40;;;;;;;;;;5041652;28;20110;-75
2022/09/18 15:16:20;;;;;;;0.25;0.25;;;;;;;;;;5052850;28;20029;-75
2022/09/18 15:18:46;;;;;;;0.20;0.20;;;;;;;;;;5053312;28;20052;-75